createdAt,value
2019-04-20T00:00:54.284Z,11.57
2019-04-20T00:01:59.360Z,11.61
2019-04-20T00:03:01.277Z,11.66
2019-04-20T00:04:05.329Z,11.55
2019-04-20T00:05:09.381Z,11.60
2019-04-20T00:06:13.126Z,11.58
2019-04-20T00:07:18.675Z,11.53
2019-04-20T00:08:27.758Z,11.40
2019-04-20T00:09:31.289Z,11.33
2019-04-20T00:10:44.544Z,11.40
2019-04-20T00:11:49.399Z,11.41
2019-04-20T00:12:55.644Z,11.45
2019-04-20T00:13:56.200Z,11.44
2019-04-20T00:14:50.263Z,11.22
2019-04-20T00:15:54.056Z,11.31
2019-04-20T00:16:56.935Z,11.13
2019-04-20T00:18:03.481Z,11.31
2019-04-20T00:19:05.866Z,11.14
2019-04-20T00:20:16.218Z,11.16
2019-04-20T00:21:33.956Z,10.87
2019-04-20T00:22:48.616Z,10.86
2019-04-20T00:23:48.632Z,10.54
2019-04-20T00:24:58.073Z,10.20
2019-04-20T00:26:26.810Z,9.85
2019-04-20T00:27:44.403Z,9.63
2019-04-20T00:28:47.256Z,9.54
2019-04-20T00:29:49.912Z,9.65
2019-04-20T00:30:52.948Z,9.62
2019-04-20T00:31:52.322Z,9.88
2019-04-20T00:32:55.579Z,10.25
2019-04-20T00:33:59.448Z,10.56
2019-04-20T00:34:54.055Z,10.79
2019-04-20T00:35:57.013Z,10.93
2019-04-20T00:37:00.310Z,10.94
2019-04-20T00:38:03.465Z,11.01
2019-04-20T00:39:10.418Z,10.82
2019-04-20T00:40:12.912Z,10.69
2019-04-20T00:41:17.206Z,10.58
2019-04-20T00:42:29.078Z,10.54
2019-04-20T00:43:28.131Z,10.65
2019-04-20T00:44:34.134Z,10.55
2019-04-20T00:45:35.222Z,10.28
2019-04-20T00:46:51.263Z,10.28
2019-04-20T00:47:50.923Z,10.24
2019-04-20T00:48:53.439Z,10.30
2019-04-20T00:50:00.905Z,10.32
2019-04-20T00:51:17.411Z,10.37
2019-04-20T00:53:13.953Z,10.47
2019-04-20T00:54:09.950Z,10.50
2019-04-20T00:55:12.841Z,10.52
2019-04-20T00:56:16.150Z,10.40
2019-04-20T00:57:30.063Z,10.41
2019-04-20T00:58:32.981Z,10.10
2019-04-20T00:59:42.941Z,10.28
2019-04-20T01:01:00.388Z,10.23
2019-04-20T01:01:59.839Z,10.22
2019-04-20T01:02:55.535Z,10.04
2019-04-20T01:04:06.492Z,10.01
2019-04-20T01:05:11.133Z,9.80
2019-04-20T01:06:17.683Z,9.66
2019-04-20T01:07:20.388Z,9.90
2019-04-20T01:08:19.083Z,9.84
2019-04-20T01:09:26.898Z,10.04
2019-04-20T01:10:35.374Z,10.08
2019-04-20T01:11:39.491Z,10.16
2019-04-20T01:12:40.258Z,10.19
2019-04-20T01:13:50.512Z,10.30
2019-04-20T01:18:38.413Z,10.27
2019-04-20T01:19:40.618Z,10.39
2019-04-20T01:20:43.211Z,10.43
2019-04-20T01:21:54.807Z,10.41
2019-04-20T01:22:56.021Z,10.42
2019-04-20T01:23:59.537Z,10.49
2019-04-20T01:25:04.987Z,10.45
2019-04-20T01:26:07.510Z,10.47
2019-04-20T01:27:22.885Z,10.49
2019-04-20T01:28:27.651Z,10.47
2019-04-20T01:29:26.071Z,10.44
2019-04-20T01:30:28.492Z,10.35
2019-04-20T01:31:33.949Z,10.16
2019-04-20T01:32:41.637Z,10.09
2019-04-20T01:33:42.607Z,10.17
2019-04-20T01:34:48.285Z,9.95
2019-04-20T01:36:00.690Z,10.06
2019-04-20T01:37:01.024Z,10.12
2019-04-20T01:38:07.313Z,10.16
2019-04-20T01:39:02.967Z,10.22
2019-04-20T01:40:00.739Z,10.29
2019-04-20T01:41:03.252Z,10.30
2019-04-20T01:42:06.515Z,10.31
2019-04-20T01:43:10.057Z,10.25
2019-04-20T01:44:13.448Z,10.35
2019-04-20T01:45:25.212Z,10.26
2019-04-20T01:46:23.487Z,10.23
2019-04-20T01:47:32.363Z,10.30
2019-04-20T01:48:33.314Z,10.30
2019-04-20T01:49:35.195Z,10.30
2019-04-20T01:50:43.419Z,10.07
2019-04-20T01:51:53.603Z,10.10
2019-04-20T01:52:58.102Z,10.19
2019-04-20T01:54:11.790Z,10.05
2019-04-20T01:55:43.946Z,10.14
2019-04-20T01:56:43.475Z,10.10
2019-04-20T01:58:00.393Z,9.99
2019-04-20T01:59:04.876Z,9.87
2019-04-20T02:00:03.902Z,9.55
2019-04-20T02:01:23.900Z,9.60
2019-04-20T02:02:24.947Z,9.48
2019-04-20T02:03:51.811Z,9.52
2019-04-20T02:05:04.518Z,9.66
2019-04-20T02:06:10.002Z,9.81
2019-04-20T02:07:10.676Z,9.79
2019-04-20T02:08:18.341Z,9.73
2019-04-20T02:09:22.221Z,9.90
2019-04-20T02:10:34.227Z,9.90
2019-04-20T02:11:33.981Z,9.91
2019-04-20T02:12:35.930Z,9.90
2019-04-20T02:13:42.172Z,9.91
2019-04-20T02:14:45.333Z,9.76
2019-04-20T02:15:51.271Z,9.73
2019-04-20T02:16:58.391Z,9.81
2019-04-20T02:18:07.700Z,9.85
2019-04-20T02:19:13.512Z,9.80
2019-04-20T02:20:28.627Z,9.83
2019-04-20T02:21:28.663Z,9.83
2019-04-20T02:22:37.317Z,9.86
2019-04-20T02:23:33.018Z,9.78
2019-04-20T02:24:25.744Z,9.73
2019-04-20T02:25:29.042Z,9.73
2019-04-20T02:26:32.339Z,9.79
2019-04-20T02:27:44.456Z,9.80
2019-04-20T02:29:05.963Z,9.84
2019-04-20T02:30:07.754Z,9.81
2019-04-20T02:31:28.552Z,9.80
2019-04-20T02:32:22.423Z,9.70
2019-04-20T02:34:55.527Z,9.63
2019-04-20T02:39:37.603Z,9.70
2019-04-20T02:40:47.355Z,9.62
2019-04-20T02:41:58.004Z,9.60
2019-04-20T02:42:51.596Z,9.57
2019-04-20T02:45:13.066Z,9.44
2019-04-20T02:46:14.915Z,9.55
2019-04-20T02:47:24.663Z,9.37
2019-04-20T02:48:07.720Z,9.38
2019-04-20T02:51:31.290Z,9.38
2019-04-20T02:52:50.672Z,9.42
2019-04-20T02:53:46.592Z,9.38
2019-04-20T02:54:53.587Z,9.44
2019-04-20T02:55:48.333Z,9.35
2019-04-20T02:57:07.352Z,9.50
2019-04-20T02:59:02.143Z,9.37
2019-04-20T03:00:07.021Z,9.36
2019-04-20T03:01:17.796Z,9.33
2019-04-20T03:02:15.608Z,9.38
2019-04-20T03:03:14.692Z,9.37
2019-04-20T03:04:20.312Z,9.32
2019-04-20T03:05:25.748Z,9.31
2019-04-20T03:06:30.493Z,9.27
2019-04-20T03:07:35.381Z,9.14
2019-04-20T03:08:53.232Z,9.12
2019-04-20T03:09:54.240Z,9.02
2019-04-20T03:11:06.314Z,9.19
2019-04-20T03:12:03.390Z,9.20
2019-04-20T03:13:09.830Z,9.14
2019-04-20T03:14:02.202Z,9.09
2019-04-20T03:15:11.213Z,9.07
2019-04-20T03:16:16.777Z,9.06
2019-04-20T03:17:26.965Z,9.09
2019-04-20T03:18:25.313Z,9.11
2019-04-20T03:19:23.414Z,9.10
2019-04-20T03:20:36.856Z,8.96
2019-04-20T03:21:45.404Z,9.06
2019-04-20T03:23:07.315Z,9.16
2019-04-20T03:23:54.196Z,9.11
2019-04-20T03:24:54.415Z,9.26
2019-04-20T03:26:05.423Z,9.20
2019-04-20T03:27:07.563Z,9.30
2019-04-20T03:28:20.539Z,9.31
2019-04-20T03:29:36.087Z,9.25
2019-04-20T03:33:23.856Z,9.16
2019-04-20T03:34:52.647Z,9.02
2019-04-20T03:35:31.405Z,9.01
2019-04-20T03:36:47.255Z,8.99
2019-04-20T03:37:31.986Z,9.02
2019-04-20T03:38:33.733Z,8.96
2019-04-20T03:39:32.393Z,8.87
2019-04-20T03:40:37.564Z,8.82
2019-04-20T03:41:36.283Z,8.53
2019-04-20T03:42:30.872Z,8.50
2019-04-20T03:43:34.602Z,8.67
2019-04-20T03:44:38.895Z,8.67
2019-04-20T03:45:49.962Z,8.75
2019-04-20T03:46:54.996Z,8.87
2019-04-20T03:48:04.432Z,8.91
2019-04-20T03:49:17.289Z,8.98
2019-04-20T03:50:29.391Z,8.81
2019-04-20T03:51:32.011Z,8.94
2019-04-20T03:52:32.708Z,8.88
2019-04-20T03:53:43.408Z,8.78
2019-04-20T03:54:52.241Z,8.80
2019-04-20T03:56:03.809Z,8.70
2019-04-20T03:57:21.227Z,8.78
2019-04-20T03:58:24.196Z,8.27
2019-04-20T03:59:34.628Z,8.13
2019-04-20T04:00:36.173Z,8.27
2019-04-20T04:02:07.454Z,8.09
2019-04-20T04:03:08.386Z,8.32
2019-04-20T04:04:05.215Z,8.20
2019-04-20T04:05:10.929Z,8.09
2019-04-20T04:06:24.224Z,8.13
2019-04-20T04:07:28.297Z,8.38
2019-04-20T04:08:35.321Z,8.16
2019-04-20T04:09:40.138Z,8.31
2019-04-20T04:10:50.318Z,8.23
2019-04-20T04:11:55.082Z,8.38
2019-04-20T04:13:07.293Z,8.67
2019-04-20T04:14:09.921Z,8.80
2019-04-20T04:15:12.748Z,8.89
2019-04-20T04:16:17.200Z,9.06
2019-04-20T04:17:21.244Z,8.91
2019-04-20T04:18:29.795Z,8.72
2019-04-20T04:19:31.709Z,8.88
2019-04-20T04:20:38.788Z,8.71
2019-04-20T04:21:53.766Z,8.81
2019-04-20T04:23:00.410Z,8.94
2019-04-20T04:24:02.440Z,8.93
2019-04-20T04:25:03.832Z,9.17
2019-04-20T04:26:08.723Z,9.23
2019-04-20T04:27:10.508Z,9.14
2019-04-20T04:28:20.682Z,9.30
2019-04-20T04:29:34.516Z,8.89
2019-04-20T04:30:25.320Z,8.92
2019-04-20T04:31:36.327Z,9.12
2019-04-20T04:33:06.971Z,9.27
2019-04-20T04:33:55.757Z,9.40
2019-04-20T04:34:52.757Z,9.52
2019-04-20T04:35:56.569Z,9.55
2019-04-20T04:37:03.448Z,9.63
2019-04-20T04:38:09.433Z,9.68
2019-04-20T04:39:19.645Z,9.73
2019-04-20T04:40:27.937Z,9.71
2019-04-20T04:42:27.681Z,9.83
2019-04-20T04:43:28.486Z,9.81
2019-04-20T04:44:26.313Z,9.86
2019-04-20T04:45:23.727Z,9.80
2019-04-20T04:46:22.869Z,9.72
2019-04-20T04:47:26.233Z,9.73
2019-04-20T04:48:34.427Z,9.87
2019-04-20T04:49:39.283Z,9.82
2019-04-20T04:50:46.216Z,9.95
2019-04-20T04:51:50.387Z,10.00
2019-04-20T04:52:58.782Z,10.09
2019-04-20T04:53:58.032Z,10.03
2019-04-20T04:55:07.618Z,10.20
2019-04-20T04:56:05.754Z,10.30
2019-04-20T04:57:03.341Z,10.32
2019-04-20T04:58:06.569Z,10.34
2019-04-20T04:59:10.613Z,10.41
2019-04-20T05:00:20.073Z,10.40
2019-04-20T05:01:25.302Z,10.35
2019-04-20T05:02:29.963Z,10.37
2019-04-20T05:03:44.938Z,10.47
2019-04-20T05:05:20.534Z,10.37
2019-04-20T05:06:18.655Z,10.50
2019-04-20T05:07:15.147Z,10.59
2019-04-20T05:08:21.198Z,10.61
2019-04-20T05:09:15.812Z,10.66
2019-04-20T05:10:20.690Z,10.72
2019-04-20T05:11:23.868Z,10.80
2019-04-20T05:12:28.335Z,10.85
2019-04-20T05:13:37.085Z,10.90
2019-04-20T05:14:47.163Z,11.01
2019-04-20T05:15:53.934Z,11.10
2019-04-20T05:16:58.288Z,11.18
2019-04-20T05:18:05.842Z,11.21
2019-04-20T05:20:17.379Z,11.24
2019-04-20T05:21:25.983Z,11.39
2019-04-20T05:22:34.749Z,11.41
2019-04-20T05:23:41.399Z,11.50
2019-04-20T05:24:57.119Z,11.58
2019-04-20T05:26:10.051Z,11.70
2019-04-20T05:27:24.653Z,11.72
2019-04-20T05:28:30.566Z,11.78
2019-04-20T05:29:29.304Z,11.83
2019-04-20T05:30:28.774Z,11.86
2019-04-20T05:31:39.686Z,11.90
2019-04-20T05:32:44.654Z,11.84
2019-04-20T05:34:04.161Z,11.94
2019-04-20T05:35:05.532Z,11.93
2019-04-20T05:36:06.865Z,12.01
2019-04-20T05:37:20.838Z,11.99
2019-04-20T05:38:25.168Z,11.98
2019-04-20T05:39:26.791Z,12.00
2019-04-20T05:40:26.239Z,12.01
2019-04-20T05:41:31.030Z,12.11
2019-04-20T05:42:41.235Z,12.24
2019-04-20T05:43:41.181Z,12.25
2019-04-20T05:44:57.269Z,12.29
2019-04-20T05:45:55.024Z,12.47
2019-04-20T05:47:06.901Z,12.52
2019-04-20T05:48:06.728Z,12.61
2019-04-20T05:49:19.059Z,12.71
2019-04-20T05:50:08.268Z,12.76
2019-04-20T05:51:25.521Z,12.92
2019-04-20T05:52:36.158Z,13.01
2019-04-20T05:53:32.575Z,13.12
2019-04-20T05:54:40.351Z,13.09
2019-04-20T05:55:40.093Z,13.12
2019-04-20T05:57:00.579Z,13.19
2019-04-20T05:57:50.460Z,13.27
2019-04-20T05:58:50.714Z,13.30
2019-04-20T06:00:02.196Z,13.38
2019-04-20T06:01:08.955Z,13.50
2019-04-20T06:02:11.137Z,13.62
2019-04-20T06:03:05.825Z,13.65
2019-04-20T06:04:11.612Z,13.72
2019-04-20T06:05:23.906Z,13.80
2019-04-20T06:06:21.819Z,13.78
2019-04-20T06:08:39.009Z,14.04
2019-04-20T06:09:34.187Z,14.07
2019-04-20T06:10:45.406Z,14.24
2019-04-20T06:12:00.285Z,14.32
2019-04-20T06:12:46.095Z,14.37
2019-04-20T06:13:48.664Z,14.51
2019-04-20T06:15:15.449Z,14.53
2019-04-20T06:16:29.815Z,14.65
2019-04-20T06:17:53.140Z,14.71
2019-04-20T06:19:06.354Z,14.82
2019-04-20T06:20:16.869Z,14.88
2019-04-20T06:21:21.308Z,14.88
2019-04-20T06:22:21.764Z,14.95
2019-04-20T06:25:11.915Z,15.14
2019-04-20T06:26:22.753Z,15.18
2019-04-20T06:27:11.426Z,15.32
2019-04-20T06:28:16.083Z,15.30
2019-04-20T06:29:18.386Z,15.40
2019-04-20T06:30:20.164Z,15.47
2019-04-20T06:31:30.048Z,15.52
2019-04-20T06:33:24.625Z,15.63
2019-04-20T06:34:33.458Z,15.79
2019-04-20T06:35:56.607Z,15.78
2019-04-20T06:36:41.353Z,15.72
2019-04-20T06:37:45.881Z,15.65
2019-04-20T06:41:17.337Z,15.83
2019-04-20T06:43:09.068Z,15.89
2019-04-20T06:44:08.808Z,15.96
2019-04-20T06:45:18.289Z,16.00
2019-04-20T06:46:18.775Z,15.90
2019-04-20T06:47:18.822Z,15.91
2019-04-20T06:48:29.120Z,16.04
2019-04-20T06:50:29.185Z,15.91
2019-04-20T06:51:42.512Z,15.94
2019-04-20T06:53:13.241Z,15.91
2019-04-20T06:54:07.286Z,16.02
2019-04-20T06:55:14.188Z,16.07
2019-04-20T06:56:29.389Z,16.13
2019-04-20T06:57:34.616Z,16.06
2019-04-20T06:58:44.852Z,15.84
2019-04-20T06:59:43.408Z,15.87
2019-04-20T07:00:53.441Z,15.62
2019-04-20T07:01:58.315Z,15.69
2019-04-20T07:03:07.946Z,15.73
2019-04-20T07:04:15.043Z,15.73
2019-04-20T07:04:59.637Z,15.64
2019-04-20T07:06:23.232Z,15.77
2019-04-20T07:07:15.690Z,15.72
2019-04-20T07:08:34.623Z,15.77
2019-04-20T07:09:23.491Z,15.79
2019-04-20T07:10:35.904Z,15.78
2019-04-20T07:11:32.200Z,15.88
2019-04-20T07:12:35.680Z,15.83
2019-04-20T07:13:33.679Z,15.90
2019-04-20T07:14:39.083Z,15.87
2019-04-20T07:15:46.278Z,16.05
2019-04-20T07:17:00.145Z,16.10
2019-04-20T07:18:23.020Z,16.21
2019-04-20T07:19:24.132Z,16.16
2019-04-20T07:20:51.664Z,16.04
2019-04-20T07:22:17.006Z,16.03
2019-04-20T07:24:18.446Z,16.07
2019-04-20T07:25:16.317Z,16.12
2019-04-20T07:26:22.264Z,16.23
2019-04-20T07:27:26.238Z,16.38
2019-04-20T07:28:35.591Z,16.40
2019-04-20T07:29:36.736Z,16.63
2019-04-20T07:30:41.508Z,16.77
2019-04-20T07:31:39.372Z,16.97
2019-04-20T07:32:52.536Z,17.07
2019-04-20T07:33:54.387Z,17.15
2019-04-20T07:34:58.560Z,16.97
2019-04-20T07:35:56.321Z,16.88
2019-04-20T07:37:28.351Z,16.67
2019-04-20T07:38:24.324Z,16.68
2019-04-20T07:39:13.481Z,16.78
2019-04-20T07:40:29.223Z,16.88
2019-04-20T07:41:33.113Z,16.99
2019-04-20T07:42:29.090Z,16.88
2019-04-20T07:43:30.086Z,17.03
2019-04-20T07:44:44.256Z,17.02
2019-04-20T07:45:36.541Z,17.02
2019-04-20T07:47:08.868Z,17.00
2019-04-20T07:47:56.870Z,16.92
2019-04-20T07:48:54.386Z,16.98
2019-04-20T07:49:58.072Z,17.03
2019-04-20T07:50:56.829Z,17.20
2019-04-20T07:51:49.462Z,16.99
2019-04-20T07:53:09.238Z,16.83
2019-04-20T07:54:26.700Z,16.80
2019-04-20T07:56:34.939Z,16.72
2019-04-20T07:57:30.745Z,16.75
2019-04-20T07:58:27.355Z,16.70
2019-04-20T07:59:32.534Z,16.81
2019-04-20T08:00:55.052Z,16.70
2019-04-20T08:02:08.433Z,16.72
2019-04-20T08:04:36.409Z,16.68
2019-04-20T08:05:40.612Z,16.76
2019-04-20T08:06:40.742Z,16.90
2019-04-20T08:07:46.347Z,16.93
2019-04-20T08:08:57.421Z,16.96
2019-04-20T08:09:54.695Z,16.94
2019-04-20T08:11:07.474Z,16.85
2019-04-20T08:12:25.679Z,16.88
2019-04-20T08:13:32.065Z,17.06
2019-04-20T08:14:31.865Z,17.17
2019-04-20T08:15:42.754Z,17.38
2019-04-20T08:17:09.593Z,17.45
2019-04-20T08:17:50.949Z,17.43
2019-04-20T08:18:49.898Z,17.24
2019-04-20T08:19:52.167Z,17.21
2019-04-20T08:20:58.398Z,17.19
2019-04-20T08:21:58.604Z,17.05
2019-04-20T08:23:09.782Z,17.09
2019-04-20T08:24:07.020Z,17.18
2019-04-20T08:25:08.318Z,17.13
2019-04-20T08:26:09.030Z,17.14
2019-04-20T08:27:10.950Z,17.18
2019-04-20T08:28:21.435Z,17.26
2019-04-20T08:29:41.708Z,17.19
2019-04-20T08:30:41.272Z,17.35
2019-04-20T08:32:16.423Z,17.48
2019-04-20T08:33:17.827Z,17.55
2019-04-20T08:34:35.348Z,17.83
2019-04-20T08:35:42.546Z,18.08
2019-04-20T08:36:49.228Z,18.18
2019-04-20T08:37:59.451Z,18.26
2019-04-20T08:39:12.740Z,18.39
2019-04-20T08:40:01.740Z,18.34
2019-04-20T08:40:59.462Z,18.16
2019-04-20T08:42:06.390Z,18.23
2019-04-20T08:43:20.046Z,18.28
2019-04-20T08:44:33.986Z,18.11
2019-04-20T08:45:23.909Z,18.24
2019-04-20T08:46:26.782Z,18.36
2019-04-20T08:47:37.938Z,18.35
2019-04-20T08:48:32.849Z,18.46
2019-04-20T08:49:41.431Z,18.53
2019-04-20T08:50:41.468Z,18.56
2019-04-20T08:51:55.031Z,18.66
2019-04-20T08:53:09.610Z,18.69
2019-04-20T08:54:00.010Z,18.74
2019-04-20T08:55:07.772Z,18.85
2019-04-20T08:56:02.285Z,18.90
2019-04-20T08:56:55.379Z,19.00
2019-04-20T08:57:56.490Z,19.04
2019-04-20T08:58:59.647Z,19.10
2019-04-20T09:00:09.221Z,19.04
2019-04-20T09:01:20.035Z,18.97
2019-04-20T09:02:18.534Z,18.88
2019-04-20T09:03:27.604Z,18.98
2019-04-20T09:04:38.785Z,19.05
2019-04-20T09:05:42.417Z,19.08
2019-04-20T09:06:50.630Z,18.79
2019-04-20T09:07:49.983Z,18.93
2019-04-20T09:08:53.958Z,18.86
2019-04-20T09:10:12.316Z,19.02
2019-04-20T09:11:10.288Z,18.74
2019-04-20T09:12:16.756Z,18.76
2019-04-20T09:13:12.060Z,18.77
2019-04-20T09:14:18.694Z,18.65
2019-04-20T09:15:23.372Z,18.52
2019-04-20T09:16:35.680Z,18.54
2019-04-20T09:17:45.002Z,18.60
2019-04-20T09:18:50.271Z,18.60
2019-04-20T09:19:55.890Z,18.81
2019-04-20T09:20:58.909Z,18.85
2019-04-20T09:22:24.458Z,18.86
2019-04-20T09:23:33.496Z,18.92
2019-04-20T09:24:47.451Z,18.80
2019-04-20T09:26:47.961Z,18.86
2019-04-20T09:27:48.758Z,18.81
2019-04-20T09:28:59.029Z,18.78
2019-04-20T09:30:09.433Z,18.85
2019-04-20T09:31:18.492Z,19.04
2019-04-20T09:32:23.347Z,19.17
2019-04-20T09:33:46.995Z,19.02
2019-04-20T09:34:55.811Z,19.09
2019-04-20T09:35:48.656Z,19.12
2019-04-20T09:37:20.352Z,19.18
2019-04-20T09:38:15.489Z,18.98
2019-04-20T09:39:37.807Z,18.93
2019-04-20T09:40:50.824Z,18.79
2019-04-20T09:42:00.381Z,18.96
2019-04-20T09:43:06.946Z,19.04
2019-04-20T09:44:10.921Z,19.23
2019-04-20T09:45:27.625Z,19.36
2019-04-20T09:46:26.389Z,19.53
2019-04-20T09:47:35.842Z,19.64
2019-04-20T09:48:41.983Z,19.44
2019-04-20T09:49:51.881Z,19.40
2019-04-20T09:51:03.844Z,19.49
2019-04-20T09:52:01.682Z,19.38
2019-04-20T09:53:09.875Z,19.54
2019-04-20T09:54:17.465Z,19.59
2019-04-20T09:55:16.335Z,19.69
2019-04-20T09:56:20.766Z,19.76
2019-04-20T09:57:30.964Z,19.79
2019-04-20T09:58:26.228Z,19.80
2019-04-20T09:59:39.706Z,19.87
2019-04-20T10:00:56.751Z,19.82
2019-04-20T10:01:50.803Z,19.77
2019-04-20T10:02:50.585Z,19.84
2019-04-20T10:03:52.844Z,19.94
2019-04-20T10:04:55.651Z,20.01
2019-04-20T10:05:59.272Z,20.03
2019-04-20T10:07:07.951Z,19.88
2019-04-20T10:08:09.654Z,19.91
2019-04-20T10:09:11.630Z,20.05
2019-04-20T10:10:24.380Z,20.09
2019-04-20T10:11:19.419Z,20.00
2019-04-20T10:12:22.041Z,20.08
2019-04-20T10:13:25.234Z,20.20
2019-04-20T10:14:28.909Z,20.34
2019-04-20T10:15:32.752Z,20.28
2019-04-20T10:16:35.800Z,20.14
2019-04-20T10:17:39.188Z,20.26
2019-04-20T10:18:46.823Z,20.26
2019-04-20T10:19:48.781Z,20.34
2019-04-20T10:20:51.650Z,20.20
2019-04-20T10:21:54.882Z,19.76
2019-04-20T10:22:58.476Z,19.50
2019-04-20T10:24:01.333Z,19.56
2019-04-20T10:25:04.754Z,19.64
2019-04-20T10:26:07.312Z,20.17
2019-04-20T10:27:12.251Z,20.23
2019-04-20T10:28:19.445Z,19.66
2019-04-20T10:29:21.970Z,19.54
2019-04-20T10:30:26.054Z,19.28
2019-04-20T10:31:28.826Z,19.31
2019-04-20T10:32:38.850Z,19.33
2019-04-20T10:33:35.599Z,19.70
2019-04-20T10:34:38.844Z,19.90
2019-04-20T10:35:41.769Z,20.53
2019-04-20T10:36:44.053Z,20.65
2019-04-20T10:37:49.625Z,20.71
2019-04-20T10:38:53.153Z,20.68
2019-04-20T10:39:56.432Z,20.20
2019-04-20T10:41:08.156Z,20.06
2019-04-20T10:42:04.366Z,20.02
2019-04-20T10:43:08.070Z,19.55
2019-04-20T10:44:12.308Z,19.28
2019-04-20T10:45:15.363Z,18.96
2019-04-20T10:46:20.733Z,18.94
2019-04-20T10:47:23.591Z,18.89
2019-04-20T10:48:32.054Z,19.20
2019-04-20T10:49:33.142Z,19.27
2019-04-20T10:50:36.773Z,18.98
2019-04-20T10:51:39.971Z,19.09
2019-04-20T10:52:43.680Z,19.20
2019-04-20T10:53:48.615Z,19.31
2019-04-20T10:54:52.062Z,19.51
2019-04-20T10:55:55.717Z,19.40
2019-04-20T10:56:59.451Z,19.39
2019-04-20T10:58:03.802Z,19.32
2019-04-20T10:59:07.703Z,19.40
2019-04-20T11:00:13.537Z,19.46
2019-04-20T11:01:15.756Z,19.67
2019-04-20T11:02:19.483Z,19.58
2019-04-20T11:03:22.820Z,19.68
2019-04-20T11:04:26.313Z,19.80
2019-04-20T11:05:30.722Z,19.88
2019-04-20T11:06:34.456Z,19.73
2019-04-20T11:07:37.122Z,19.65
2019-04-20T11:08:40.705Z,19.72
2019-04-20T11:09:42.821Z,19.79
2019-04-20T11:10:58.961Z,19.71
2019-04-20T11:11:50.423Z,19.63
2019-04-20T11:12:53.403Z,19.63
2019-04-20T11:13:59.873Z,19.51
2019-04-20T11:15:00.646Z,19.46
2019-04-20T11:16:04.308Z,19.58
2019-04-20T11:17:06.910Z,19.74
2019-04-20T11:18:09.529Z,20.00
2019-04-20T11:19:11.676Z,20.18
2019-04-20T11:20:15.148Z,20.41
2019-04-20T11:21:17.908Z,20.43
2019-04-20T11:22:20.055Z,20.27
2019-04-20T11:23:22.530Z,20.27
2019-04-20T11:24:26.080Z,20.30
2019-04-20T11:25:30.326Z,20.07
2019-04-20T11:26:36.586Z,19.98
2019-04-20T11:27:38.405Z,20.12
2019-04-20T11:28:41.975Z,19.93
2019-04-20T11:29:44.753Z,20.04
2019-04-20T11:30:48.050Z,19.91
2019-04-20T11:31:54.347Z,20.03
2019-04-20T11:32:56.008Z,20.12
2019-04-20T11:33:58.543Z,19.96
2019-04-20T11:35:11.473Z,19.98
2019-04-20T11:36:07.324Z,20.01
2019-04-20T11:37:10.805Z,20.01
2019-04-20T11:38:17.010Z,20.01
2019-04-20T11:39:18.833Z,20.11
2019-04-20T11:40:23.365Z,19.96
2019-04-20T11:41:29.137Z,19.97
2019-04-20T11:42:31.876Z,19.78
2019-04-20T11:43:35.655Z,19.86
2019-04-20T11:44:38.553Z,19.95
2019-04-20T11:45:40.747Z,20.11
2019-04-20T11:46:43.326Z,20.04
2019-04-20T11:47:47.287Z,19.82
2019-04-20T11:48:49.952Z,19.92
2019-04-20T11:49:53.413Z,19.86
2019-04-20T11:50:57.663Z,19.76
2019-04-20T11:52:01.406Z,19.61
2019-04-20T11:53:03.955Z,19.63
2019-04-20T11:54:08.027Z,19.78
2019-04-20T11:55:12.637Z,20.00
2019-04-20T11:56:21.304Z,20.14
2019-04-20T11:57:19.631Z,20.23
2019-04-20T11:58:21.853Z,20.22
2019-04-20T11:59:25.359Z,20.26
2019-04-20T12:00:46.028Z,20.27
2019-04-20T12:02:02.545Z,20.32
2019-04-20T12:03:15.881Z,20.43
2019-04-20T12:04:28.456Z,20.38
2019-04-20T12:05:31.590Z,20.07
2019-04-20T12:06:26.512Z,20.03
2019-04-20T12:07:38.194Z,19.87
2019-04-20T12:08:42.707Z,19.83
2019-04-20T12:09:45.242Z,19.72
2019-04-20T12:10:52.862Z,19.45
2019-04-20T12:12:02.051Z,19.47
2019-04-20T12:12:57.759Z,19.52
2019-04-20T12:14:00.680Z,19.52
2019-04-20T12:15:06.493Z,19.55
2019-04-20T12:16:09.859Z,19.53
2019-04-20T12:17:13.573Z,19.22
2019-04-20T12:18:17.815Z,19.43
2019-04-20T12:19:20.749Z,19.50
2019-04-20T12:20:23.092Z,19.31
2019-04-20T12:21:28.678Z,19.50
2019-04-20T12:22:32.437Z,19.50
2019-04-20T12:23:36.081Z,19.47
2019-04-20T12:24:38.446Z,19.40
2019-04-20T12:25:42.743Z,19.47
2019-04-20T12:26:46.879Z,19.56
2019-04-20T12:27:55.099Z,19.66
2019-04-20T12:28:54.213Z,19.72
2019-04-20T12:29:57.567Z,19.72
2019-04-20T12:31:04.064Z,19.72
2019-04-20T12:32:06.908Z,19.75
2019-04-20T12:33:09.606Z,19.90
2019-04-20T12:34:12.699Z,19.85
2019-04-20T12:35:16.440Z,19.93
2019-04-20T12:36:18.715Z,19.83
2019-04-20T12:37:20.911Z,19.89
2019-04-20T12:38:23.312Z,20.04
2019-04-20T12:39:25.094Z,20.09
2019-04-20T12:40:28.229Z,20.15
2019-04-20T12:41:37.140Z,20.17
2019-04-20T12:42:34.993Z,20.22
2019-04-20T12:43:38.107Z,20.33
2019-04-20T12:44:41.697Z,20.47
2019-04-20T12:45:44.133Z,20.32
2019-04-20T12:46:47.801Z,20.26
2019-04-20T12:47:51.545Z,20.36
2019-04-20T12:48:53.571Z,20.47
2019-04-20T12:49:56.150Z,20.56
2019-04-20T12:50:59.496Z,20.53
2019-04-20T12:52:06.074Z,20.57
2019-04-20T12:53:06.575Z,20.57
2019-04-20T12:54:08.853Z,20.56
2019-04-20T12:55:12.408Z,20.45
2019-04-20T12:56:14.864Z,20.44
2019-04-20T12:57:18.566Z,20.50
2019-04-20T12:58:21.249Z,20.46
2019-04-20T12:59:25.454Z,20.56
2019-04-20T13:00:49.652Z,20.43
2019-04-20T13:01:55.403Z,20.45
2019-04-20T13:02:59.158Z,20.39
2019-04-20T13:04:04.472Z,20.53
2019-04-20T13:05:09.421Z,20.51
2019-04-20T13:06:12.152Z,20.33
2019-04-20T13:07:15.674Z,20.41
2019-04-20T13:08:28.590Z,20.28
2019-04-20T13:09:32.610Z,20.32
2019-04-20T13:10:35.956Z,20.38
2019-04-20T13:11:49.469Z,20.50
2019-04-20T13:12:46.834Z,20.42
2019-04-20T13:14:14.578Z,20.48
2019-04-20T13:15:40.545Z,20.68
2019-04-20T13:16:44.070Z,20.87
2019-04-20T13:17:49.280Z,20.84
2019-04-20T13:18:55.265Z,20.58
2019-04-20T13:19:57.886Z,20.40
2019-04-20T13:21:01.698Z,20.08
2019-04-20T13:22:05.297Z,20.24
2019-04-20T13:23:09.304Z,20.16
2019-04-20T13:24:11.761Z,20.06
2019-04-20T13:25:14.974Z,20.16
2019-04-20T13:26:17.542Z,20.31
2019-04-20T13:27:20.894Z,20.39
2019-04-20T13:28:23.187Z,20.39
2019-04-20T13:29:26.821Z,20.52
2019-04-20T13:30:30.047Z,20.40
2019-04-20T13:31:33.757Z,20.33
2019-04-20T13:32:36.325Z,20.31
2019-04-20T13:33:39.224Z,20.15
2019-04-20T13:34:44.188Z,20.27
2019-04-20T13:35:48.088Z,20.30
2019-04-20T13:36:52.388Z,20.21
2019-04-20T13:37:56.146Z,20.25
2019-04-20T13:38:59.651Z,20.24
2019-04-20T13:40:04.924Z,20.11
2019-04-20T13:41:09.500Z,20.34
2019-04-20T13:42:21.227Z,20.38
2019-04-20T13:43:19.715Z,20.19
2019-04-20T13:44:22.139Z,20.08
2019-04-20T13:45:25.071Z,20.03
2019-04-20T13:46:29.216Z,20.07
2019-04-20T13:47:32.746Z,20.20
2019-04-20T13:48:35.145Z,20.08
2019-04-20T13:49:38.860Z,20.18
2019-04-20T13:50:42.545Z,20.09
2019-04-20T13:51:45.043Z,19.98
2019-04-20T13:52:48.962Z,20.12
2019-04-20T13:53:53.125Z,20.09
2019-04-20T13:54:56.408Z,20.22
2019-04-20T13:56:01.679Z,20.29
2019-04-20T13:57:06.036Z,20.30
2019-04-20T13:58:27.494Z,20.05
2019-04-20T13:59:33.892Z,19.79
2019-04-20T14:00:41.312Z,19.92
2019-04-20T14:01:45.081Z,19.91
2019-04-20T14:02:53.936Z,20.07
2019-04-20T14:04:08.201Z,20.11
2019-04-20T14:05:11.108Z,20.08
2019-04-20T14:06:14.393Z,19.91
2019-04-20T14:07:18.696Z,20.10
2019-04-20T14:08:25.780Z,20.07
2019-04-20T14:09:29.611Z,20.21
2019-04-20T14:10:33.403Z,20.15
2019-04-20T14:11:35.926Z,20.30
2019-04-20T14:12:48.870Z,20.22
2019-04-20T14:13:47.211Z,20.17
2019-04-20T14:14:46.935Z,20.17
2019-04-20T14:15:49.446Z,20.23
2019-04-20T14:16:52.951Z,20.12
2019-04-20T14:17:55.452Z,20.20
2019-04-20T14:19:00.869Z,20.07
2019-04-20T14:20:11.422Z,19.97
2019-04-20T14:21:10.066Z,20.21
2019-04-20T14:22:13.237Z,20.32
2019-04-20T14:23:17.050Z,20.22
2019-04-20T14:24:19.434Z,20.25
2019-04-20T14:25:22.878Z,20.40
2019-04-20T14:26:25.326Z,20.33
2019-04-20T14:27:28.762Z,20.53
2019-04-20T14:28:33.206Z,20.58
2019-04-20T14:29:36.987Z,20.33
2019-04-20T14:30:40.202Z,20.44
2019-04-20T14:31:43.799Z,20.56
2019-04-20T14:32:47.955Z,20.48
2019-04-20T14:33:50.867Z,20.63
2019-04-20T14:34:53.493Z,20.50
2019-04-20T14:35:56.932Z,20.56
2019-04-20T14:37:00.264Z,20.42
2019-04-20T14:38:03.869Z,20.55